Aviation Digital Data Service (ADDS)

Output produced by METARs form (0559 UTC 19 August 2019)
found at http://www.aviationweather.gov/metar/data/
 
Forecast for: YSCB (CANBERRA (CIV/MI, AU)
Text: TAF YSCB 190534Z 1906/2006 31012KT CAVOK
Forecast period: 0600 to 1600 UTC 19 August 2019
Forecast type: FROM: standard forecast or significant change
Winds: from the NW (310 degrees) at 14 MPH (12 knots; 6.2 m/s)
Visibility: 6 or more miles 10+ km)
Ceiling: unknown
Clouds: missing
Weather: NSW  (no significant weather)
Text: FM191600 29008KT 9999 BKN025
Forecast period: 1600 UTC 19 August 2019 to 0000 UTC 20 August 2019
Forecast type: FROM: standard forecast or significant change
Winds: from the WNW (290 degrees) at 9 MPH (8 knots; 4.1 m/s)
Visibility: 6 or more miles 10+ km)
Ceiling: 2500 feet AGL
Clouds: broken clouds at 2500 feet AGL
Weather: no significant weather forecast for this period
Text: FM200000 28017G27KT 9999 BKN035
Forecast period: 0000 to 0600 UTC 20 August 2019
Forecast type: FROM: standard forecast or significant change
Winds: from the W (280 degrees) at 20 MPH (17 knots; 8.7 m/s)
gusting to 31 MPH (27 knots; 13.9 m/s)
Visibility: 6 or more miles 10+ km)
Ceiling: 3500 feet AGL
Clouds: broken clouds at 3500 feet AGL
Weather: no significant weather forecast for this period